createdAt,value
2023-04-02T00:00:10.768Z,98446.00
2023-04-02T00:02:56.279Z,98448.25
2023-04-02T00:05:28.967Z,98447.50
2023-04-02T00:08:16.806Z,98450.81
2023-04-02T00:10:49.390Z,98457.97
2023-04-02T00:13:15.825Z,98459.16
2023-04-02T00:15:55.667Z,98465.69
2023-04-02T00:18:22.533Z,98460.28
2023-04-02T00:20:54.921Z,98470.38
2023-04-02T00:23:22.752Z,98494.78
2023-04-02T00:25:49.131Z,98498.78
2023-04-02T00:28:21.249Z,98500.88
2023-04-02T00:30:53.862Z,98489.03
2023-04-02T00:33:23.055Z,98518.00
2023-04-02T00:35:52.496Z,98522.78
2023-04-02T00:38:28.306Z,98532.03
2023-04-02T00:40:57.164Z,98532.38
2023-04-02T00:43:26.111Z,98516.13
2023-04-02T00:45:57.395Z,98525.44
2023-04-02T00:48:31.639Z,98533.88
2023-04-02T00:51:23.713Z,98536.63
2023-04-02T00:53:54.101Z,98541.22
2023-04-02T00:56:36.322Z,98548.38
2023-04-02T00:59:03.078Z,98552.03
2023-04-02T01:01:35.849Z,98560.09
2023-04-02T01:04:04.436Z,98559.19
2023-04-02T01:06:35.755Z,98563.69
2023-04-02T01:09:24.837Z,98572.59
2023-04-02T01:12:19.169Z,98574.19
2023-04-02T01:15:12.305Z,98582.88
2023-04-02T01:17:50.747Z,98597.81
2023-04-02T01:20:54.191Z,98600.66
2023-04-02T01:23:26.400Z,98606.00
2023-04-02T01:26:11.388Z,98617.72
2023-04-02T01:28:56.285Z,98623.94
2023-04-02T01:31:23.818Z,98624.91
2023-04-02T01:33:50.132Z,98622.78
2023-04-02T01:36:27.998Z,98627.00
2023-04-02T01:39:10.903Z,98637.47
2023-04-02T01:41:49.195Z,98647.28
2023-04-02T01:44:23.983Z,98652.91
2023-04-02T01:46:50.580Z,98643.00
2023-04-02T01:49:22.216Z,98661.22
2023-04-02T01:51:54.765Z,98661.47
2023-04-02T01:54:22.443Z,98674.31
2023-04-02T01:56:51.620Z,98668.50
2023-04-02T01:59:21.095Z,98672.06
2023-04-02T02:02:00.617Z,98686.06
2023-04-02T02:04:27.099Z,98685.06
2023-04-02T02:06:53.529Z,98678.03
2023-04-02T02:09:24.218Z,98688.50
2023-04-02T02:11:51.213Z,98696.13
2023-04-02T02:14:26.908Z,98706.63
2023-04-02T02:16:59.781Z,98717.50
2023-04-02T02:19:32.006Z,98712.69
2023-04-02T02:22:11.156Z,98711.84
2023-04-02T02:24:38.548Z,98727.56
2023-04-02T02:27:22.941Z,98733.88
2023-04-02T02:29:58.632Z,98736.59
2023-04-02T02:32:30.566Z,98741.09
2023-04-02T02:35:43.308Z,98749.59
2023-04-02T02:38:29.370Z,98744.91
2023-04-02T02:41:01.257Z,98760.25
2023-04-02T02:43:28.285Z,98759.03
2023-04-02T02:45:57.507Z,98762.94
2023-04-02T02:48:34.132Z,98775.22
2023-04-02T02:51:04.255Z,98777.47
2023-04-02T02:53:30.674Z,98774.03
2023-04-02T02:56:01.007Z,98777.81
2023-04-02T02:58:31.791Z,98787.53
2023-04-02T03:00:59.356Z,98798.78
2023-04-02T03:03:32.388Z,98768.28
2023-04-02T03:06:05.724Z,98785.09
2023-04-02T03:08:41.692Z,98797.84
2023-04-02T03:11:26.729Z,98807.81
2023-04-02T03:13:58.356Z,98821.63
2023-04-02T03:16:34.387Z,98819.16
2023-04-02T03:19:15.724Z,98831.56
2023-04-02T03:21:51.126Z,98825.25
2023-04-02T03:24:23.587Z,98834.94
2023-04-02T03:26:56.489Z,98845.50
2023-04-02T03:29:26.807Z,98850.38
2023-04-02T03:32:39.498Z,98863.28
2023-04-02T03:35:30.594Z,98864.00
2023-04-02T03:38:19.501Z,98874.41
2023-04-02T03:41:10.198Z,98879.03
2023-04-02T03:43:42.641Z,98884.25
2023-04-02T03:46:22.400Z,98886.84
2023-04-02T03:48:54.800Z,98902.75
2023-04-02T03:51:30.439Z,98890.63
2023-04-02T03:53:56.970Z,98903.09
2023-04-02T03:56:31.141Z,98906.81
2023-04-02T03:59:06.029Z,98901.66
2023-04-02T04:01:37.862Z,98911.41
2023-04-02T04:04:12.546Z,98916.56
2023-04-02T04:06:43.166Z,98918.84
2023-04-02T04:09:39.021Z,98928.66
2023-04-02T04:12:09.504Z,98935.31
2023-04-02T04:14:41.903Z,98930.97
2023-04-02T04:17:09.056Z,98937.34
2023-04-02T04:19:57.770Z,98933.13
2023-04-02T04:22:26.617Z,98949.44
2023-04-02T04:24:52.928Z,98955.38
2023-04-02T04:27:36.905Z,98950.56
2023-04-02T04:30:13.554Z,98957.38
2023-04-02T04:32:48.081Z,98959.00
2023-04-02T04:35:37.170Z,98974.91
2023-04-02T04:38:10.608Z,98972.78
2023-04-02T04:40:44.149Z,98983.06
2023-04-02T04:43:19.151Z,98992.50
2023-04-02T04:45:56.062Z,98996.19
2023-04-02T04:48:39.178Z,98999.72
2023-04-02T04:51:10.173Z,99008.88
2023-04-02T04:53:46.996Z,99005.13
2023-04-02T04:56:19.518Z,99007.53
2023-04-02T04:58:53.937Z,99016.47
2023-04-02T05:01:29.915Z,99030.91
2023-04-02T05:04:21.808Z,99036.13
2023-04-02T05:07:07.280Z,99037.50
2023-04-02T05:09:59.268Z,99048.91
2023-04-02T05:12:28.549Z,99058.69
2023-04-02T05:15:01.233Z,99048.09
2023-04-02T05:17:43.004Z,99065.47
2023-04-02T05:20:20.245Z,99067.78
2023-04-02T05:23:29.527Z,99087.75
2023-04-02T05:26:06.809Z,99091.72
2023-04-02T05:28:40.795Z,99084.56
2023-04-02T05:31:12.510Z,99082.09
2023-04-02T05:33:39.832Z,99087.78
2023-04-02T05:36:19.972Z,99094.69
2023-04-02T05:38:48.458Z,99110.06
2023-04-02T05:41:26.505Z,99110.19
2023-04-02T05:44:05.457Z,99115.13
2023-04-02T05:46:36.470Z,99125.28
2023-04-02T05:49:06.921Z,99129.28
2023-04-02T05:51:45.701Z,99136.22
2023-04-02T05:54:25.621Z,99144.84
2023-04-02T05:56:57.832Z,99136.56
2023-04-02T05:59:31.655Z,99149.13
2023-04-02T06:02:14.161Z,99145.09
2023-04-02T06:04:59.026Z,99147.00
2023-04-02T06:07:41.224Z,99166.06
2023-04-02T06:10:33.697Z,99159.47
2023-04-02T06:13:15.293Z,99168.22
2023-04-02T06:15:41.850Z,99166.66
2023-04-02T06:18:19.050Z,99185.28
2023-04-02T06:20:46.163Z,99196.50
2023-04-02T06:23:19.702Z,99193.09
2023-04-02T06:25:55.342Z,99193.75
2023-04-02T06:28:29.233Z,99207.22
2023-04-02T06:31:00.967Z,99213.34
2023-04-02T06:33:27.311Z,99215.44
2023-04-02T06:35:55.356Z,99216.47
2023-04-02T06:38:29.448Z,99229.72
2023-04-02T06:41:04.483Z,99238.50
2023-04-02T06:43:36.636Z,99243.00
2023-04-02T06:46:11.866Z,99241.13
2023-04-02T06:48:41.731Z,99254.28
2023-04-02T06:51:12.460Z,99257.03
2023-04-02T06:53:42.947Z,99259.09
2023-04-02T06:56:27.290Z,99274.84
2023-04-02T06:58:53.928Z,99269.69
2023-04-02T07:01:25.321Z,99281.22
2023-04-02T07:03:51.919Z,99279.91
2023-04-02T07:06:21.275Z,99295.50
2023-04-02T07:08:48.421Z,99299.06
2023-04-02T07:11:19.434Z,99290.09
2023-04-02T07:13:50.203Z,99310.97
2023-04-02T07:16:20.517Z,99312.59
2023-04-02T07:18:47.392Z,99312.94
2023-04-02T07:21:14.035Z,99328.06
2023-04-02T07:23:41.006Z,99328.19
2023-04-02T07:26:12.786Z,99336.53
2023-04-02T07:28:39.123Z,99310.47
2023-04-02T07:31:15.981Z,99345.78
2023-04-02T07:33:42.309Z,99350.69
2023-04-02T07:36:13.511Z,99347.31
2023-04-02T07:38:39.978Z,99347.75
2023-04-02T07:41:07.335Z,99373.59
2023-04-02T07:43:33.716Z,99365.09
2023-04-02T07:46:00.018Z,99382.34
2023-04-02T07:48:26.538Z,99376.13
2023-04-02T07:50:53.083Z,99376.28
2023-04-02T07:53:45.737Z,99401.13
2023-04-02T07:56:14.876Z,99399.09
2023-04-02T07:58:41.190Z,99402.53
2023-04-02T08:01:15.700Z,99399.94
2023-04-02T08:03:42.144Z,99413.09
2023-04-02T08:06:08.608Z,99419.72
2023-04-02T08:08:34.951Z,99432.41
2023-04-02T08:11:01.257Z,99409.88
2023-04-02T08:13:27.630Z,99431.81
2023-04-02T08:15:54.001Z,99430.88
2023-04-02T08:18:22.663Z,99445.22
2023-04-02T08:20:49.371Z,99441.84
2023-04-02T08:23:16.627Z,99458.22
2023-04-02T08:25:44.154Z,99459.09
2023-04-02T08:28:10.456Z,99460.25
2023-04-02T08:30:36.788Z,99474.19
2023-04-02T08:33:03.859Z,99466.63
2023-04-02T08:35:30.887Z,99474.78
2023-04-02T08:37:57.469Z,99484.91
2023-04-02T08:40:36.024Z,99487.75
2023-04-02T08:43:26.752Z,99494.00
2023-04-02T08:46:10.248Z,99504.84
2023-04-02T08:48:42.454Z,99490.38
2023-04-02T08:51:21.801Z,99499.38
2023-04-02T08:53:48.275Z,99511.66
2023-04-02T08:56:20.442Z,99521.97
2023-04-02T08:58:50.938Z,99533.22
2023-04-02T09:01:36.454Z,99529.44
2023-04-02T09:04:06.821Z,99537.88
2023-04-02T09:06:33.985Z,99546.03
2023-04-02T09:09:01.035Z,99543.75
2023-04-02T09:11:52.074Z,99552.41
2023-04-02T09:14:42.608Z,99549.56
2023-04-02T09:17:19.128Z,99551.59
2023-04-02T09:19:54.894Z,99554.94
2023-04-02T09:22:27.250Z,99563.09
2023-04-02T09:24:59.611Z,99577.25
2023-04-02T09:27:30.012Z,99574.44
2023-04-02T09:30:14.613Z,99574.78
2023-04-02T09:32:54.443Z,99585.97
2023-04-02T09:35:27.062Z,99594.78
2023-04-02T09:38:08.935Z,99605.19
2023-04-02T09:40:46.551Z,99612.16
2023-04-02T09:43:16.261Z,99608.69
2023-04-02T09:45:44.911Z,99621.09
2023-04-02T09:48:26.893Z,99614.41
2023-04-02T09:51:06.874Z,99607.09
2023-04-02T09:53:36.699Z,99624.53
2023-04-02T09:56:23.949Z,99625.63
2023-04-02T09:59:15.261Z,99631.53
2023-04-02T10:01:44.366Z,99643.06
2023-04-02T10:04:41.682Z,99652.38
2023-04-02T10:07:32.714Z,99654.16
2023-04-02T10:10:18.121Z,99658.47
2023-04-02T10:12:48.567Z,99657.94
2023-04-02T10:15:20.754Z,99655.81
2023-04-02T10:17:55.150Z,99657.19
2023-04-02T10:20:25.632Z,99648.16
2023-04-02T10:22:52.007Z,99644.00
2023-04-02T10:25:24.678Z,99652.81
2023-04-02T10:28:08.852Z,99653.53
2023-04-02T10:30:53.472Z,99649.16
2023-04-02T10:33:37.258Z,99669.78
2023-04-02T10:36:32.971Z,99658.72
2023-04-02T10:39:15.921Z,99675.22
2023-04-02T10:41:52.184Z,99680.69
2023-04-02T10:44:47.523Z,99683.78
2023-04-02T10:47:32.604Z,99685.50
2023-04-02T10:50:27.994Z,99698.50
2023-04-02T10:53:14.558Z,99698.16
2023-04-02T10:55:45.421Z,99709.56
2023-04-02T10:58:29.956Z,99714.03
2023-04-02T11:01:15.455Z,99728.03
2023-04-02T11:03:48.368Z,99718.00
2023-04-02T11:06:25.847Z,99735.66
2023-04-02T11:08:58.325Z,99724.53
2023-04-02T11:11:30.535Z,99741.34
2023-04-02T11:14:03.075Z,99749.81
2023-04-02T11:16:29.773Z,99742.16
2023-04-02T11:19:21.670Z,99751.81
2023-04-02T11:21:58.515Z,99748.63
2023-04-02T11:24:29.116Z,99755.75
2023-04-02T11:27:04.783Z,99748.34
2023-04-02T11:29:33.405Z,99761.22
2023-04-02T11:32:21.864Z,99766.00
2023-04-02T11:34:56.431Z,99769.78
2023-04-02T11:37:40.796Z,99765.75
2023-04-02T11:40:44.975Z,99771.47
2023-04-02T11:43:32.976Z,99783.69
2023-04-02T11:46:03.565Z,99780.78
2023-04-02T11:48:34.581Z,99786.97
2023-04-02T11:51:00.991Z,99781.69
2023-04-02T11:53:33.157Z,99789.06
2023-04-02T11:56:08.519Z,99790.19
2023-04-02T11:59:07.802Z,99781.22
2023-04-02T12:02:04.512Z,99789.72
2023-04-02T12:04:45.892Z,99785.63
2023-04-02T12:07:30.081Z,99793.56
2023-04-02T12:10:00.701Z,99792.94
2023-04-02T12:12:32.797Z,99792.38
2023-04-02T12:15:00.576Z,99800.56
2023-04-02T12:17:38.714Z,99806.94
2023-04-02T12:20:07.851Z,99799.59
2023-04-02T12:22:38.026Z,99809.03
2023-04-02T12:25:18.311Z,99812.16
2023-04-02T12:27:44.715Z,99815.34
2023-04-02T12:30:19.253Z,99825.81
2023-04-02T12:32:45.884Z,99816.22
2023-04-02T12:35:27.964Z,99833.88
2023-04-02T12:37:54.457Z,99831.16
2023-04-02T12:40:21.300Z,99834.59
2023-04-02T12:42:47.656Z,99828.56
2023-04-02T12:45:22.892Z,99841.56
2023-04-02T12:47:49.248Z,99832.03
2023-04-02T12:50:17.075Z,99838.47
2023-04-02T12:52:49.282Z,99843.16
2023-04-02T12:55:20.075Z,99843.00
2023-04-02T12:57:46.446Z,99839.53
2023-04-02T13:00:22.061Z,99850.25
2023-04-02T13:03:12.805Z,99856.59
2023-04-02T13:05:48.101Z,99841.47
2023-04-02T13:08:41.544Z,99848.50
2023-04-02T13:11:08.296Z,99859.81
2023-04-02T13:13:37.822Z,99861.06
2023-04-02T13:16:24.872Z,99865.00
2023-04-02T13:18:51.353Z,99847.34
2023-04-02T13:21:20.691Z,99873.69
2023-04-02T13:23:47.478Z,99850.44
2023-04-02T13:26:21.157Z,99868.78
2023-04-02T13:28:56.634Z,99870.47
2023-04-02T13:31:23.011Z,99863.94
2023-04-02T13:33:49.434Z,99864.91
2023-04-02T13:36:15.808Z,99872.19
2023-04-02T13:38:42.420Z,99869.03
2023-04-02T13:41:25.210Z,99879.69
2023-04-02T13:43:53.058Z,99873.16
2023-04-02T13:46:25.250Z,99872.81
2023-04-02T13:48:53.340Z,99885.09
2023-04-02T13:51:22.741Z,99882.53
2023-04-02T13:53:55.652Z,99872.22
2023-04-02T13:56:22.102Z,99885.63
2023-04-02T13:58:48.607Z,99887.75
2023-04-02T14:01:15.089Z,99884.19
2023-04-02T14:03:41.932Z,99897.59
2023-04-02T14:06:29.748Z,99889.16
2023-04-02T14:09:21.990Z,99906.84
2023-04-02T14:12:10.757Z,99904.09
2023-04-02T14:15:13.552Z,99912.63
2023-04-02T14:18:04.562Z,99915.44
2023-04-02T14:20:44.554Z,99917.94
2023-04-02T14:23:29.508Z,99923.63
2023-04-02T14:26:25.610Z,99931.75
2023-04-02T14:28:54.691Z,99928.63
2023-04-02T14:31:36.167Z,99929.06
2023-04-02T14:34:11.281Z,99927.19
2023-04-02T14:37:04.529Z,99923.00
2023-04-02T14:39:59.735Z,99937.50
2023-04-02T14:42:41.813Z,99933.13
2023-04-02T14:45:12.555Z,99929.75
2023-04-02T14:47:45.221Z,99936.34
2023-04-02T14:50:17.006Z,99946.88
2023-04-02T14:52:47.378Z,99944.97
2023-04-02T14:55:26.087Z,99946.91
2023-04-02T14:57:54.749Z,99932.78
2023-04-02T15:01:02.764Z,99955.06
2023-04-02T15:03:34.787Z,99955.72
2023-04-02T15:06:12.180Z,99959.03
2023-04-02T15:08:48.283Z,99953.38
2023-04-02T15:11:29.820Z,99953.44
2023-04-02T15:14:31.535Z,99957.81
2023-04-02T15:16:57.971Z,99954.97
2023-04-02T15:19:24.496Z,99957.28
2023-04-02T15:22:09.480Z,99965.44
2023-04-02T15:25:04.344Z,99962.66
2023-04-02T15:28:07.629Z,99970.28
2023-04-02T15:30:43.496Z,99968.91
2023-04-02T15:33:28.069Z,99975.91
2023-04-02T15:36:13.096Z,99981.06
2023-04-02T15:38:57.731Z,99980.88
2023-04-02T15:41:33.163Z,99978.78
2023-04-02T15:44:09.920Z,99982.38
2023-04-02T15:46:54.323Z,99988.91
2023-04-02T15:49:39.547Z,99990.47
2023-04-02T15:52:31.704Z,99990.19
2023-04-02T15:55:32.632Z,99999.31
2023-04-02T15:58:21.753Z,100005.31
2023-04-02T16:01:03.931Z,100008.78
2023-04-02T16:03:49.273Z,100006.16
2023-04-02T16:06:31.150Z,100015.03
2023-04-02T16:09:22.365Z,100018.16
2023-04-02T16:12:21.258Z,100016.81
2023-04-02T16:14:49.482Z,100023.13
2023-04-02T16:17:25.581Z,100011.28
2023-04-02T16:20:00.603Z,100016.72
2023-04-02T16:22:30.010Z,100020.78
2023-04-02T16:25:10.953Z,100032.16
2023-04-02T16:27:45.047Z,100018.72
2023-04-02T16:30:28.801Z,100029.88
2023-04-02T16:33:27.256Z,100019.19
2023-04-02T16:35:58.152Z,100034.84
2023-04-02T16:38:49.043Z,100030.63
2023-04-02T16:41:25.474Z,100030.38
2023-04-02T16:44:10.330Z,100037.16
2023-04-02T16:46:51.685Z,100032.16
2023-04-02T16:49:32.926Z,100036.25
2023-04-02T16:52:33.703Z,100041.66
2023-04-02T16:55:12.119Z,100042.84
2023-04-02T16:57:56.337Z,100041.72
2023-04-02T17:00:45.267Z,100050.22
2023-04-02T17:03:26.695Z,100047.44
2023-04-02T17:06:04.531Z,100056.78
2023-04-02T17:08:38.935Z,100057.91
2023-04-02T17:11:14.793Z,100051.38
2023-04-02T17:13:48.403Z,100061.16
2023-04-02T17:16:35.326Z,100058.91
2023-04-02T17:19:01.849Z,100071.53
2023-04-02T17:21:30.872Z,100079.53
2023-04-02T17:24:02.392Z,100077.78
2023-04-02T17:26:32.680Z,100068.47
2023-04-02T17:29:04.214Z,100081.50
2023-04-02T17:31:33.192Z,100081.41
2023-04-02T17:34:00.217Z,100092.59
2023-04-02T17:37:03.738Z,100098.72
2023-04-02T17:39:40.368Z,100099.00
2023-04-02T17:42:28.425Z,100103.44
2023-04-02T17:45:17.548Z,100096.06
2023-04-02T17:48:04.348Z,100105.66
2023-04-02T17:50:44.773Z,100110.88
2023-04-02T17:53:26.912Z,100110.53
2023-04-02T17:56:19.767Z,100111.03
2023-04-02T17:59:20.301Z,100115.66
2023-04-02T18:01:54.076Z,100121.06
2023-04-02T18:04:54.753Z,100122.97
2023-04-02T18:07:29.578Z,100122.06
2023-04-02T18:10:09.921Z,100129.91
2023-04-02T18:12:57.321Z,100131.03
2023-04-02T18:15:48.491Z,100131.13
2023-04-02T18:18:30.427Z,100138.13
2023-04-02T18:21:24.302Z,100145.03
2023-04-02T18:24:28.417Z,100150.34
2023-04-02T18:27:22.506Z,100151.09
2023-04-02T18:30:14.652Z,100152.81
2023-04-02T18:33:01.334Z,100156.88
2023-04-02T18:35:36.812Z,100166.53
2023-04-02T18:38:27.846Z,100169.84
2023-04-02T18:41:19.488Z,100170.31
2023-04-02T18:44:13.950Z,100173.88
2023-04-02T18:46:54.084Z,100170.38
2023-04-02T18:49:37.990Z,100169.00
2023-04-02T18:52:12.486Z,100176.31
2023-04-02T18:54:45.738Z,100179.78
2023-04-02T18:57:21.048Z,100186.25
2023-04-02T19:00:23.932Z,100190.75
2023-04-02T19:03:00.231Z,100185.84
2023-04-02T19:05:36.108Z,100200.53
2023-04-02T19:08:13.733Z,100202.84
2023-04-02T19:10:44.825Z,100194.63
2023-04-02T19:13:16.284Z,100199.09
2023-04-02T19:16:06.091Z,100197.09
2023-04-02T19:18:51.681Z,100205.50
2023-04-02T19:21:34.661Z,100210.66
2023-04-02T19:24:40.172Z,100211.44
2023-04-02T19:27:36.926Z,100214.25
2023-04-02T19:30:27.117Z,100217.50
2023-04-02T19:33:09.712Z,100219.63
2023-04-02T19:35:45.652Z,100224.16
2023-04-02T19:38:37.889Z,100221.88
2023-04-02T19:41:25.265Z,100221.41
2023-04-02T19:43:52.696Z,100232.88
2023-04-02T19:46:19.056Z,100228.06
2023-04-02T19:49:12.678Z,100240.88
2023-04-02T19:51:38.967Z,100234.38
2023-04-02T19:54:05.447Z,100238.06
2023-04-02T19:56:31.999Z,100229.25
2023-04-02T19:59:02.356Z,100238.47
2023-04-02T20:01:31.546Z,100243.91
2023-04-02T20:03:57.978Z,100233.34
2023-04-02T20:06:24.339Z,100230.19
2023-04-02T20:08:50.878Z,100243.06
2023-04-02T20:11:17.213Z,100238.19
2023-04-02T20:13:43.854Z,100240.53
2023-04-02T20:16:10.434Z,100248.19
2023-04-02T20:18:36.857Z,100243.56
2023-04-02T20:21:05.440Z,100266.16
2023-04-02T20:23:31.865Z,100268.56
2023-04-02T20:25:58.363Z,100264.84
2023-04-02T20:28:26.008Z,100271.88
2023-04-02T20:30:52.939Z,100258.50
2023-04-02T20:33:24.471Z,100267.22
2023-04-02T20:35:52.850Z,100274.84
2023-04-02T20:38:19.314Z,100275.84
2023-04-02T20:40:45.748Z,100278.69
2023-04-02T20:43:12.202Z,100272.69
2023-04-02T20:45:38.491Z,100275.06
2023-04-02T20:48:05.210Z,100285.88
2023-04-02T20:50:31.607Z,100293.19
2023-04-02T20:53:00.148Z,100289.16
2023-04-02T20:55:26.570Z,100291.84
2023-04-02T20:57:53.627Z,100292.66
2023-04-02T21:00:20.164Z,100293.22
2023-04-02T21:02:46.732Z,100292.88
2023-04-02T21:05:13.202Z,100308.28
2023-04-02T21:07:39.658Z,100301.63
2023-04-02T21:10:07.470Z,100309.72
2023-04-02T21:12:33.796Z,100324.06
2023-04-02T21:15:02.230Z,100327.84
2023-04-02T21:17:29.491Z,100318.78
2023-04-02T21:19:56.121Z,100317.44
2023-04-02T21:22:22.779Z,100318.53
2023-04-02T21:24:49.207Z,100325.38
2023-04-02T21:27:15.549Z,100329.91
2023-04-02T21:29:41.942Z,100331.91
2023-04-02T21:32:20.365Z,100332.38
2023-04-02T21:34:47.461Z,100346.34
2023-04-02T21:37:13.889Z,100344.13
2023-04-02T21:39:40.454Z,100353.34
2023-04-02T21:42:06.812Z,100362.41
2023-04-02T21:44:33.277Z,100355.91
2023-04-02T21:46:59.748Z,100351.47
2023-04-02T21:49:26.196Z,100343.91
2023-04-02T21:51:52.499Z,100351.28
2023-04-02T21:54:19.547Z,100358.47
2023-04-02T21:56:46.757Z,100363.41
2023-04-02T21:59:15.867Z,100366.25
2023-04-02T22:01:47.962Z,100360.81
2023-04-02T22:04:17.444Z,100361.16
2023-04-02T22:06:44.684Z,100371.34
2023-04-02T22:09:15.419Z,100371.56
2023-04-02T22:11:50.313Z,100377.97
2023-04-02T22:14:17.091Z,100374.56
2023-04-02T22:16:43.861Z,100375.72
2023-04-02T22:19:13.719Z,100384.75
2023-04-02T22:21:40.418Z,100378.38
2023-04-02T22:24:09.356Z,100380.41
2023-04-02T22:26:36.162Z,100394.06
2023-04-02T22:29:02.683Z,100388.53
2023-04-02T22:31:31.113Z,100396.03
2023-04-02T22:33:58.011Z,100395.28
2023-04-02T22:36:26.163Z,100395.06
2023-04-02T22:38:53.031Z,100399.66
2023-04-02T22:41:22.825Z,100396.91
2023-04-02T22:43:49.404Z,100407.06
2023-04-02T22:46:17.499Z,100399.91
2023-04-02T22:48:44.688Z,100411.75
2023-04-02T22:51:13.051Z,100407.22
2023-04-02T22:53:39.697Z,100404.63
2023-04-02T22:56:08.038Z,100410.59
2023-04-02T22:58:35.323Z,100419.03
2023-04-02T23:01:17.629Z,100423.25
2023-04-02T23:03:44.020Z,100421.94
2023-04-02T23:06:13.455Z,100433.22
2023-04-02T23:08:41.436Z,100434.16
2023-04-02T23:11:12.250Z,100439.28
2023-04-02T23:13:39.830Z,100441.06
2023-04-02T23:16:10.124Z,100444.44
2023-04-02T23:18:38.040Z,100442.41
2023-04-02T23:21:05.699Z,100440.19
2023-04-02T23:23:33.089Z,100457.03
2023-04-02T23:26:14.601Z,100453.09
2023-04-02T23:28:41.705Z,100449.50
2023-04-02T23:31:12.318Z,100459.19
2023-04-02T23:33:39.320Z,100460.06
2023-04-02T23:36:10.504Z,100454.44
2023-04-02T23:38:36.993Z,100461.94
2023-04-02T23:41:03.707Z,100459.53
2023-04-02T23:43:30.106Z,100448.50
2023-04-02T23:45:56.772Z,100467.44
2023-04-02T23:48:23.391Z,100446.28
2023-04-02T23:50:49.773Z,100458.34
2023-04-02T23:53:16.073Z,100456.03
2023-04-02T23:55:42.459Z,100468.28
2023-04-02T23:58:08.777Z,100459.69
